createdAt,value
2022-10-09T00:02:10.855Z,6.60
2022-10-09T00:05:25.498Z,10.50
2022-10-09T00:09:13.067Z,9.20
2022-10-09T00:12:43.930Z,13.20
2022-10-09T00:16:11.381Z,12.10
2022-10-09T00:19:31.682Z,9.50
2022-10-09T00:22:39.917Z,5.90
2022-10-09T00:25:57.066Z,7.50
2022-10-09T00:29:43.332Z,10.80
2022-10-09T00:33:21.676Z,6.80
2022-10-09T00:36:54.199Z,8.80
2022-10-09T00:40:34.629Z,5.30
2022-10-09T00:44:20.585Z,8.00
2022-10-09T00:48:19.977Z,6.20
2022-10-09T00:51:35.060Z,5.90
2022-10-09T00:55:08.314Z,9.40
2022-10-09T00:58:55.695Z,5.90
2022-10-09T01:02:36.916Z,9.50
2022-10-09T01:06:27.228Z,5.80
2022-10-09T01:10:04.164Z,5.80
2022-10-09T01:13:41.539Z,7.40
2022-10-09T01:17:31.723Z,9.40
2022-10-09T01:21:25.174Z,7.40
2022-10-09T01:24:55.356Z,6.90
2022-10-09T01:28:42.336Z,7.30
2022-10-09T01:32:22.386Z,6.60
2022-10-09T01:35:51.419Z,8.20
2022-10-09T01:39:25.546Z,7.60
2022-10-09T01:42:47.736Z,6.60
2022-10-09T01:46:56.795Z,7.10
2022-10-09T01:51:05.638Z,5.60
2022-10-09T01:54:26.294Z,9.30
2022-10-09T01:57:59.432Z,7.30
2022-10-09T02:01:46.987Z,10.70
2022-10-09T02:05:32.793Z,8.00
2022-10-09T02:09:20.284Z,15.00
2022-10-09T02:13:07.925Z,11.30
2022-10-09T02:16:57.236Z,7.80
2022-10-09T02:20:20.518Z,6.20
2022-10-09T02:24:08.179Z,7.80
2022-10-09T02:27:54.481Z,7.60
2022-10-09T02:32:00.026Z,10.80
2022-10-09T02:35:32.470Z,8.70
2022-10-09T02:39:20.182Z,8.80
2022-10-09T02:43:00.165Z,7.80
2022-10-09T02:46:47.806Z,9.80
2022-10-09T02:50:20.927Z,11.20
2022-10-09T02:53:55.444Z,11.20
2022-10-09T02:57:05.196Z,6.60
2022-10-09T03:00:52.657Z,16.90
2022-10-09T03:04:08.141Z,16.50
2022-10-09T03:07:55.746Z,8.90
2022-10-09T03:11:23.622Z,9.40
2022-10-09T03:14:45.285Z,15.60
2022-10-09T03:18:32.744Z,8.20
2022-10-09T03:22:02.072Z,11.10
2022-10-09T03:25:49.607Z,14.50
2022-10-09T03:29:35.326Z,10.50
2022-10-09T03:33:22.775Z,8.10
2022-10-09T03:37:10.900Z,9.20
2022-10-09T03:40:50.199Z,7.30
2022-10-09T03:44:26.526Z,9.10
2022-10-09T03:48:04.760Z,12.50
2022-10-09T03:51:35.294Z,10.40
2022-10-09T03:55:22.778Z,6.30
2022-10-09T03:58:50.626Z,7.40
2022-10-09T04:02:03.629Z,12.40
2022-10-09T04:05:30.928Z,8.60
2022-10-09T04:09:18.026Z,10.50
2022-10-09T04:13:05.559Z,10.90
2022-10-09T04:16:52.734Z,11.90
2022-10-09T04:20:22.699Z,13.60
2022-10-09T04:24:09.871Z,12.90
2022-10-09T04:27:57.267Z,10.60
2022-10-09T04:31:44.999Z,7.90
2022-10-09T04:35:23.073Z,14.40
2022-10-09T04:38:42.220Z,9.00
2022-10-09T04:42:12.145Z,8.30
2022-10-09T04:45:59.597Z,14.80
2022-10-09T04:49:41.069Z,10.50
2022-10-09T04:53:12.052Z,16.40
2022-10-09T04:56:59.948Z,7.80
2022-10-09T05:00:30.589Z,10.10
2022-10-09T05:04:18.021Z,9.30
2022-10-09T05:07:53.223Z,11.70
2022-10-09T05:11:13.926Z,11.30
2022-10-09T05:14:52.724Z,7.20
2022-10-09T05:18:40.282Z,8.70
2022-10-09T05:22:03.510Z,9.70
2022-10-09T05:25:31.300Z,8.90
2022-10-09T05:29:17.287Z,11.90
2022-10-09T05:33:04.802Z,12.40
2022-10-09T05:36:52.186Z,12.00
2022-10-09T05:40:32.514Z,14.80
2022-10-09T05:43:58.239Z,10.10
2022-10-09T05:47:18.247Z,5.80
2022-10-09T05:50:10.412Z,11.00
2022-10-09T05:53:36.961Z,12.40
2022-10-09T05:56:54.320Z,10.30
2022-10-09T06:00:42.865Z,8.10
2022-10-09T06:04:03.431Z,9.90
2022-10-09T06:06:57.996Z,10.90
2022-10-09T06:09:47.702Z,11.10
2022-10-09T06:12:57.115Z,9.90
2022-10-09T06:16:16.991Z,13.20
2022-10-09T06:19:45.862Z,11.00
2022-10-09T06:23:08.799Z,10.40
2022-10-09T06:26:57.313Z,10.50
2022-10-09T06:30:41.902Z,11.90
2022-10-09T06:34:21.425Z,11.20
2022-10-09T06:38:04.722Z,10.50
2022-10-09T06:41:32.228Z,13.70
2022-10-09T06:44:59.885Z,9.40
2022-10-09T06:48:38.782Z,9.70
2022-10-09T06:52:17.158Z,11.70
2022-10-09T06:56:05.743Z,13.80
2022-10-09T06:59:37.439Z,19.60
2022-10-09T07:03:00.616Z,8.70
2022-10-09T07:06:51.105Z,8.90
2022-10-09T07:10:31.532Z,18.90
2022-10-09T07:14:19.531Z,11.00
2022-10-09T07:18:07.772Z,15.90
2022-10-09T07:21:55.572Z,13.00
2022-10-09T07:25:43.604Z,11.30
2022-10-09T07:29:32.148Z,15.50
2022-10-09T07:33:00.591Z,10.20
2022-10-09T07:36:54.572Z,10.10
2022-10-09T07:40:42.390Z,13.60
2022-10-09T07:44:20.290Z,10.40
2022-10-09T07:48:08.352Z,10.20
2022-10-09T07:52:01.937Z,7.30
2022-10-09T07:55:49.761Z,11.20
2022-10-09T07:59:37.688Z,12.10
2022-10-09T08:03:25.475Z,10.70
2022-10-09T08:06:59.026Z,11.00
2022-10-09T08:10:49.062Z,12.60
2022-10-09T08:14:39.747Z,9.20
2022-10-09T08:18:28.125Z,6.80
2022-10-09T08:22:16.766Z,11.80
2022-10-09T08:26:08.910Z,18.60
2022-10-09T08:30:00.400Z,13.50
2022-10-09T08:33:49.080Z,13.70
2022-10-09T08:37:21.945Z,9.20
2022-10-09T08:41:12.756Z,11.40
2022-10-09T08:45:18.676Z,17.70
2022-10-09T08:49:06.963Z,12.30
2022-10-09T08:52:56.656Z,11.90
2022-10-09T08:56:48.845Z,9.60
2022-10-09T09:00:37.352Z,11.20
2022-10-09T09:04:36.961Z,16.50
2022-10-09T09:08:28.317Z,9.70
2022-10-09T09:12:29.451Z,13.00
2022-10-09T09:16:29.319Z,9.90
2022-10-09T09:20:33.836Z,15.00
2022-10-09T09:24:27.120Z,11.30
2022-10-09T09:28:12.516Z,13.70
2022-10-09T09:32:04.784Z,10.70
2022-10-09T09:35:53.238Z,13.90
2022-10-09T09:43:53.702Z,8.20
2022-10-09T09:47:42.165Z,8.30
2022-10-09T09:51:30.968Z,8.90
2022-10-09T09:55:22.003Z,13.70
2022-10-09T09:59:18.971Z,17.20
2022-10-09T10:03:08.546Z,17.10
2022-10-09T10:07:14.232Z,7.20
2022-10-09T10:11:08.428Z,15.70
2022-10-09T10:15:07.863Z,7.10
2022-10-09T10:18:55.922Z,8.60
2022-10-09T10:22:49.659Z,7.50
2022-10-09T10:26:37.741Z,9.30
2022-10-09T10:30:26.258Z,7.80
2022-10-09T10:34:13.968Z,8.80
2022-10-09T10:38:08.542Z,6.90
2022-10-09T10:41:59.815Z,10.10
2022-10-09T10:45:53.421Z,3.80
2022-10-09T10:49:41.353Z,5.90
2022-10-09T10:53:44.915Z,4.40
2022-10-09T10:57:38.423Z,8.20
2022-10-09T11:01:26.354Z,9.30
2022-10-09T11:05:21.224Z,8.50
2022-10-09T11:09:22.097Z,5.30
2022-10-09T11:13:13.812Z,6.70
2022-10-09T11:17:20.143Z,3.40
2022-10-09T11:21:31.319Z,6.80
2022-10-09T11:25:19.414Z,8.90
2022-10-09T11:29:07.170Z,10.10
2022-10-09T11:33:13.242Z,9.50
2022-10-09T11:37:13.924Z,8.80
2022-10-09T11:41:07.329Z,7.20
2022-10-09T11:45:05.836Z,4.20
2022-10-09T11:48:54.861Z,8.20
2022-10-09T11:52:59.240Z,5.50
2022-10-09T11:56:46.988Z,11.70
2022-10-09T12:00:42.785Z,5.10
2022-10-09T12:04:55.619Z,12.00
2022-10-09T12:08:58.860Z,9.80
2022-10-09T12:12:58.220Z,7.20
2022-10-09T12:16:49.202Z,3.30
2022-10-09T12:20:46.289Z,10.40
2022-10-09T12:24:38.193Z,4.60
2022-10-09T12:28:27.052Z,11.60
2022-10-09T12:32:18.390Z,5.20
2022-10-09T12:36:11.582Z,5.30
2022-10-09T12:40:04.853Z,8.70
2022-10-09T12:43:53.721Z,8.70
2022-10-09T12:47:42.615Z,8.30
2022-10-09T12:51:38.399Z,7.20
2022-10-09T12:55:26.927Z,3.70
2022-10-09T12:59:16.509Z,4.00
2022-10-09T13:03:10.662Z,4.20
2022-10-09T13:07:00.099Z,7.10
2022-10-09T13:10:56.933Z,5.70
2022-10-09T13:14:46.655Z,5.60
2022-10-09T13:18:38.206Z,5.90
2022-10-09T13:22:31.104Z,8.10
2022-10-09T13:26:26.244Z,8.00
2022-10-09T13:30:14.921Z,13.50
2022-10-09T13:34:02.669Z,3.00
2022-10-09T13:37:53.703Z,4.60
2022-10-09T13:41:41.917Z,4.20
2022-10-09T13:45:30.029Z,7.80
2022-10-09T13:49:17.469Z,6.00
2022-10-09T13:53:08.406Z,4.00
2022-10-09T13:56:57.151Z,3.80
2022-10-09T14:00:47.329Z,2.70
2022-10-09T14:04:39.037Z,3.20
2022-10-09T14:08:26.723Z,1.80
2022-10-09T14:12:15.422Z,4.40
2022-10-09T14:16:03.935Z,2.30
2022-10-09T14:19:58.341Z,1.80
2022-10-09T14:23:45.966Z,9.50
2022-10-09T14:31:17.729Z,6.40
2022-10-09T14:51:24.912Z,10.70
2022-10-09T14:55:08.700Z,4.80
2022-10-09T14:58:41.438Z,3.00
2022-10-09T15:02:14.038Z,3.00
2022-10-09T15:06:12.749Z,8.30
2022-10-09T15:10:05.805Z,4.60
2022-10-09T15:14:03.159Z,4.00
2022-10-09T15:17:49.278Z,13.30
2022-10-09T15:21:42.293Z,29.20
2022-10-09T15:25:35.055Z,4.30
2022-10-09T15:29:11.920Z,2.90
2022-10-09T15:33:02.483Z,10.30
2022-10-09T15:36:45.079Z,4.70
2022-10-09T15:40:29.296Z,10.50
2022-10-09T15:44:15.347Z,4.80
2022-10-09T15:48:07.566Z,5.60
2022-10-09T15:51:57.719Z,5.50
2022-10-09T15:55:48.017Z,11.80
2022-10-09T15:59:38.389Z,10.10
2022-10-09T16:02:52.632Z,14.40
2022-10-09T16:06:43.240Z,9.90
2022-10-09T16:10:03.761Z,9.20
2022-10-09T16:13:19.548Z,12.60
2022-10-09T16:17:11.458Z,8.20
2022-10-09T16:21:05.434Z,8.30
2022-10-09T16:25:01.466Z,7.60
2022-10-09T16:28:58.427Z,7.90
2022-10-09T16:32:48.749Z,12.70
2022-10-09T16:36:43.232Z,13.00
2022-10-09T16:40:32.613Z,10.30
2022-10-09T16:44:35.409Z,50.60
2022-10-09T16:48:04.673Z,38.90
2022-10-09T16:51:14.840Z,63.10
2022-10-09T16:54:08.149Z,84.00
2022-10-09T16:57:39.936Z,78.00
2022-10-09T17:01:31.357Z,95.90
2022-10-09T17:04:49.994Z,103.20
2022-10-09T17:08:01.422Z,112.30
2022-10-09T17:11:17.515Z,83.30
2022-10-09T17:14:52.277Z,81.80
2022-10-09T17:18:13.932Z,66.60
2022-10-09T17:21:15.643Z,92.10
2022-10-09T17:24:19.261Z,90.20
2022-10-09T17:28:05.624Z,99.60
2022-10-09T17:31:30.045Z,94.10
2022-10-09T17:34:49.258Z,98.50
2022-10-09T17:38:04.614Z,99.90
2022-10-09T17:41:01.009Z,91.80
2022-10-09T17:44:19.601Z,144.40
2022-10-09T17:47:42.458Z,120.90
2022-10-09T17:51:17.573Z,101.00
2022-10-09T17:54:38.440Z,97.70
2022-10-09T17:58:02.144Z,110.10
2022-10-09T18:01:52.116Z,97.70
2022-10-09T18:05:08.721Z,83.40
2022-10-09T18:07:53.830Z,90.90
2022-10-09T18:11:26.529Z,77.60
2022-10-09T18:14:48.316Z,70.00
2022-10-09T18:18:23.998Z,53.60
2022-10-09T18:21:47.124Z,50.70
2022-10-09T18:24:30.233Z,51.60
2022-10-09T18:27:16.032Z,50.90
2022-10-09T18:30:19.868Z,71.50
2022-10-09T18:32:56.256Z,73.00
2022-10-09T18:35:45.502Z,77.20
2022-10-09T18:39:07.346Z,90.30
2022-10-09T18:42:06.612Z,112.80
2022-10-09T18:45:26.183Z,116.10
2022-10-09T18:48:30.575Z,150.00
2022-10-09T18:51:14.998Z,143.30
2022-10-09T18:54:36.071Z,130.90
2022-10-09T18:57:51.912Z,110.10
2022-10-09T19:00:28.248Z,124.80
2022-10-09T19:03:20.169Z,119.00
2022-10-09T19:06:49.169Z,117.40
2022-10-09T19:09:42.038Z,142.40
2022-10-09T19:12:24.120Z,151.90
2022-10-09T19:15:26.496Z,141.60
2022-10-09T19:18:35.208Z,147.40
2022-10-09T19:21:21.490Z,155.40
2022-10-09T19:24:16.049Z,156.30
2022-10-09T19:26:56.153Z,160.70
2022-10-09T19:29:41.105Z,154.90
2022-10-09T19:32:19.185Z,160.20
2022-10-09T19:35:00.008Z,161.30
2022-10-09T19:37:31.864Z,151.40
2022-10-09T19:40:05.145Z,155.70
2022-10-09T19:42:52.253Z,132.90
2022-10-09T19:45:29.126Z,135.90
2022-10-09T19:48:09.975Z,137.10
2022-10-09T19:50:49.303Z,134.00
2022-10-09T19:53:42.364Z,113.70
2022-10-09T19:56:44.095Z,108.00
2022-10-09T19:59:48.887Z,89.90
2022-10-09T20:02:40.749Z,87.10
2022-10-09T20:05:30.672Z,92.30
2022-10-09T20:08:16.109Z,95.00
2022-10-09T20:11:20.311Z,90.70
2022-10-09T20:14:17.510Z,90.50
2022-10-09T20:17:40.367Z,92.60
2022-10-09T20:20:26.450Z,91.30
2022-10-09T20:23:05.741Z,80.00
2022-10-09T20:25:34.572Z,83.20
2022-10-09T20:28:48.294Z,85.90
2022-10-09T20:32:12.205Z,76.60
2022-10-09T20:34:50.921Z,76.10
2022-10-09T20:37:49.735Z,95.90
2022-10-09T20:40:27.822Z,90.60
2022-10-09T20:43:09.402Z,98.70
2022-10-09T20:45:44.741Z,91.20
2022-10-09T20:48:35.923Z,96.10
2022-10-09T20:51:24.881Z,95.50
2022-10-09T20:54:54.850Z,117.40
2022-10-09T20:57:37.268Z,99.90
2022-10-09T21:00:08.882Z,80.60
2022-10-09T21:03:18.011Z,71.70
2022-10-09T21:06:13.848Z,68.30
2022-10-09T21:08:47.517Z,67.70
2022-10-09T21:11:24.040Z,64.60
2022-10-09T21:15:02.781Z,61.40
2022-10-09T21:17:33.042Z,58.00
2022-10-09T21:20:16.755Z,59.80
2022-10-09T21:22:58.406Z,61.50
2022-10-09T21:25:29.124Z,57.90
2022-10-09T21:28:24.189Z,57.40
2022-10-09T21:30:52.802Z,52.70
2022-10-09T21:33:47.355Z,49.40
2022-10-09T21:37:19.762Z,56.60
2022-10-09T21:40:03.036Z,51.20
2022-10-09T21:42:31.431Z,47.80
2022-10-09T21:45:09.117Z,50.40
2022-10-09T21:47:37.470Z,43.40
2022-10-09T21:50:45.998Z,45.50
2022-10-09T21:53:33.193Z,45.80
2022-10-09T21:56:26.406Z,45.10
2022-10-09T21:59:18.257Z,44.80
2022-10-09T22:01:46.914Z,48.80
2022-10-09T22:04:39.116Z,45.60
2022-10-09T22:07:10.656Z,49.10
2022-10-09T22:09:41.970Z,40.70
2022-10-09T22:12:15.904Z,42.50
2022-10-09T22:15:23.910Z,39.20
2022-10-09T22:17:52.731Z,45.90
2022-10-09T22:20:30.853Z,34.70
2022-10-09T22:23:13.461Z,37.30
2022-10-09T22:25:59.114Z,39.10
2022-10-09T22:28:27.646Z,37.30
2022-10-09T22:31:06.614Z,40.50
2022-10-09T22:33:49.805Z,32.30
2022-10-09T22:36:21.593Z,32.00
2022-10-09T22:38:56.824Z,33.80
2022-10-09T22:41:27.755Z,33.90
2022-10-09T22:44:00.436Z,37.70
2022-10-09T22:46:36.505Z,35.90
2022-10-09T22:49:32.478Z,31.00
2022-10-09T22:52:09.720Z,34.10
2022-10-09T22:55:14.371Z,35.10
2022-10-09T22:57:42.456Z,28.90
2022-10-09T23:00:23.294Z,31.10
2022-10-09T23:03:01.475Z,33.20
2022-10-09T23:05:29.434Z,31.90
2022-10-09T23:07:58.677Z,35.70
2022-10-09T23:10:30.991Z,33.20
2022-10-09T23:13:03.872Z,34.80
2022-10-09T23:15:36.071Z,38.20
2022-10-09T23:18:07.660Z,27.00
2022-10-09T23:20:55.871Z,33.10
2022-10-09T23:23:24.303Z,36.10
2022-10-09T23:26:11.047Z,37.10
2022-10-09T23:28:51.772Z,33.20
2022-10-09T23:31:39.870Z,43.90
2022-10-09T23:34:08.000Z,46.40
2022-10-09T23:36:50.766Z,46.00
2022-10-09T23:39:22.544Z,51.70
2022-10-09T23:41:52.429Z,49.80
2022-10-09T23:44:22.305Z,44.20
2022-10-09T23:47:00.879Z,47.40
2022-10-09T23:49:29.133Z,40.30
2022-10-09T23:51:58.865Z,37.80
2022-10-09T23:54:27.607Z,34.00
2022-10-09T23:56:56.648Z,43.30
2022-10-09T23:59:31.150Z,35.80
